sensor_id;sensor_type;location;lat;lon;timestamp;P1;durP1;ratioP1;P2;durP2;ratioP2
71947;SDS011;59820;55.076;38.766;2022-07-29T00:00:59;4.55;;;2.15;;
71947;SDS011;59820;55.076;38.766;2022-07-29T00:03:25;6.78;;;2.60;;
71947;SDS011;59820;55.076;38.766;2022-07-29T00:05:51;4.95;;;2.20;;
71947;SDS011;59820;55.076;38.766;2022-07-29T00:08:18;5.50;;;2.40;;
71947;SDS011;59820;55.076;38.766;2022-07-29T00:10:45;7.03;;;2.08;;
71947;SDS011;59820;55.076;38.766;2022-07-29T00:13:12;5.75;;;2.35;;
71947;SDS011;59820;55.076;38.766;2022-07-29T00:15:38;5.72;;;2.40;;
71947;SDS011;59820;55.076;38.766;2022-07-29T00:18:04;5.07;;;2.30;;
71947;SDS011;59820;55.076;38.766;2022-07-29T00:20:29;5.40;;;2.35;;
71947;SDS011;59820;55.076;38.766;2022-07-29T00:22:55;9.38;;;2.55;;
71947;SDS011;59820;55.076;38.766;2022-07-29T00:25:22;5.25;;;2.13;;
71947;SDS011;59820;55.076;38.766;2022-07-29T00:27:48;4.90;;;2.30;;
71947;SDS011;59820;55.076;38.766;2022-07-29T00:30:14;6.75;;;2.05;;
71947;SDS011;59820;55.076;38.766;2022-07-29T00:32:40;6.70;;;2.30;;
71947;SDS011;59820;55.076;38.766;2022-07-29T00:35:06;5.28;;;2.13;;
71947;SDS011;59820;55.076;38.766;2022-07-29T00:37:51;6.78;;;2.30;;
71947;SDS011;59820;55.076;38.766;2022-07-29T00:40:17;6.47;;;2.28;;
71947;SDS011;59820;55.076;38.766;2022-07-29T00:42:44;5.53;;;2.60;;
71947;SDS011;59820;55.076;38.766;2022-07-29T00:45:11;6.25;;;2.20;;
71947;SDS011;59820;55.076;38.766;2022-07-29T00:47:38;6.60;;;2.33;;
71947;SDS011;59820;55.076;38.766;2022-07-29T00:50:05;9.68;;;2.75;;
71947;SDS011;59820;55.076;38.766;2022-07-29T00:52:32;6.27;;;2.10;;
71947;SDS011;59820;55.076;38.766;2022-07-29T00:55:00;6.97;;;2.30;;
71947;SDS011;59820;55.076;38.766;2022-07-29T00:57:26;4.20;;;2.30;;
71947;SDS011;59820;55.076;38.766;2022-07-29T00:59:52;5.05;;;2.25;;
71947;SDS011;59820;55.076;38.766;2022-07-29T01:02:18;4.63;;;2.50;;
71947;SDS011;59820;55.076;38.766;2022-07-29T01:04:44;5.53;;;2.35;;
71947;SDS011;59820;55.076;38.766;2022-07-29T01:07:09;5.70;;;2.57;;
71947;SDS011;59820;55.076;38.766;2022-07-29T01:09:37;5.88;;;2.53;;
71947;SDS011;59820;55.076;38.766;2022-07-29T01:12:03;5.53;;;2.65;;
71947;SDS011;59820;55.076;38.766;2022-07-29T01:14:30;5.00;;;2.28;;
71947;SDS011;59820;55.076;38.766;2022-07-29T01:17:05;6.90;;;2.40;;
71947;SDS011;59820;55.076;38.766;2022-07-29T01:19:48;7.63;;;2.60;;
71947;SDS011;59820;55.076;38.766;2022-07-29T01:22:28;4.75;;;2.20;;
71947;SDS011;59820;55.076;38.766;2022-07-29T01:25:23;5.30;;;2.30;;
71947;SDS011;59820;55.076;38.766;2022-07-29T01:28:30;5.38;;;2.30;;
71947;SDS011;59820;55.076;38.766;2022-07-29T01:31:16;4.50;;;2.22;;
71947;SDS011;59820;55.076;38.766;2022-07-29T01:33:50;5.10;;;2.90;;
71947;SDS011;59820;55.076;38.766;2022-07-29T01:36:25;6.75;;;2.25;;
71947;SDS011;59820;55.076;38.766;2022-07-29T01:38:59;6.03;;;2.28;;
71947;SDS011;59820;55.076;38.766;2022-07-29T01:41:31;8.05;;;2.50;;
71947;SDS011;59820;55.076;38.766;2022-07-29T01:44:12;7.22;;;2.00;;
71947;SDS011;59820;55.076;38.766;2022-07-29T01:47:00;8.33;;;2.03;;
71947;SDS011;59820;55.076;38.766;2022-07-29T01:49:31;4.50;;;2.22;;
71947;SDS011;59820;55.076;38.766;2022-07-29T01:52:03;8.77;;;2.55;;
71947;SDS011;59820;55.076;38.766;2022-07-29T01:54:38;6.10;;;2.40;;
71947;SDS011;59820;55.076;38.766;2022-07-29T01:57:09;6.88;;;2.72;;
71947;SDS011;59820;55.076;38.766;2022-07-29T01:59:38;6.20;;;2.40;;
71947;SDS011;59820;55.076;38.766;2022-07-29T02:02:06;7.03;;;2.40;;
71947;SDS011;59820;55.076;38.766;2022-07-29T02:08:55;4.93;;;2.30;;
71947;SDS011;59820;55.076;38.766;2022-07-29T02:11:23;6.10;;;2.42;;
71947;SDS011;59820;55.076;38.766;2022-07-29T02:13:49;6.57;;;2.80;;
71947;SDS011;59820;55.076;38.766;2022-07-29T02:16:18;6.25;;;2.15;;
71947;SDS011;59820;55.076;38.766;2022-07-29T02:23:12;5.57;;;2.47;;
71947;SDS011;59820;55.076;38.766;2022-07-29T02:25:43;6.68;;;2.50;;
71947;SDS011;59820;55.076;38.766;2022-07-29T02:28:09;6.57;;;2.20;;
71947;SDS011;59820;55.076;38.766;2022-07-29T02:30:36;5.45;;;2.40;;
71947;SDS011;59820;55.076;38.766;2022-07-29T02:33:07;5.80;;;2.30;;
71947;SDS011;59820;55.076;38.766;2022-07-29T02:35:35;6.63;;;2.55;;
71947;SDS011;59820;55.076;38.766;2022-07-29T02:38:01;4.60;;;2.20;;
71947;SDS011;59820;55.076;38.766;2022-07-29T02:40:47;5.47;;;2.60;;
71947;SDS011;59820;55.076;38.766;2022-07-29T02:43:17;4.85;;;2.42;;
71947;SDS011;59820;55.076;38.766;2022-07-29T02:45:44;6.80;;;2.70;;
71947;SDS011;59820;55.076;38.766;2022-07-29T02:48:14;6.43;;;2.80;;
71947;SDS011;59820;55.076;38.766;2022-07-29T02:50:44;5.05;;;2.22;;
71947;SDS011;59820;55.076;38.766;2022-07-29T02:53:16;5.90;;;2.80;;
71947;SDS011;59820;55.076;38.766;2022-07-29T02:55:46;7.90;;;2.58;;
71947;SDS011;59820;55.076;38.766;2022-07-29T03:01:03;6.53;;;2.25;;
71947;SDS011;59820;55.076;38.766;2022-07-29T03:03:37;13.98;;;2.95;;
71947;SDS011;59820;55.076;38.766;2022-07-29T03:06:04;7.27;;;2.77;;
71947;SDS011;59820;55.076;38.766;2022-07-29T03:08:33;7.50;;;2.58;;
71947;SDS011;59820;55.076;38.766;2022-07-29T03:11:00;6.75;;;2.33;;
71947;SDS011;59820;55.076;38.766;2022-07-29T03:13:27;5.90;;;2.50;;
71947;SDS011;59820;55.076;38.766;2022-07-29T03:15:54;6.18;;;2.50;;
71947;SDS011;59820;55.076;38.766;2022-07-29T03:18:21;6.70;;;2.47;;
71947;SDS011;59820;55.076;38.766;2022-07-29T03:20:48;5.40;;;2.30;;
71947;SDS011;59820;55.076;38.766;2022-07-29T03:23:33;6.13;;;2.30;;
71947;SDS011;59820;55.076;38.766;2022-07-29T03:25:58;6.50;;;2.50;;
71947;SDS011;59820;55.076;38.766;2022-07-29T03:28:24;7.87;;;2.60;;
71947;SDS011;59820;55.076;38.766;2022-07-29T03:30:53;6.03;;;2.40;;
71947;SDS011;59820;55.076;38.766;2022-07-29T03:33:19;6.85;;;2.65;;
71947;SDS011;59820;55.076;38.766;2022-07-29T03:35:45;5.40;;;2.03;;
71947;SDS011;59820;55.076;38.766;2022-07-29T03:38:11;5.20;;;2.40;;
71947;SDS011;59820;55.076;38.766;2022-07-29T03:43:40;8.32;;;2.17;;
71947;SDS011;59820;55.076;38.766;2022-07-29T03:46:08;4.72;;;2.25;;
71947;SDS011;59820;55.076;38.766;2022-07-29T03:48:37;7.63;;;2.30;;
71947;SDS011;59820;55.076;38.766;2022-07-29T03:51:07;6.63;;;2.20;;
71947;SDS011;59820;55.076;38.766;2022-07-29T03:53:33;5.65;;;2.50;;
71947;SDS011;59820;55.076;38.766;2022-07-29T03:56:00;5.40;;;2.30;;
71947;SDS011;59820;55.076;38.766;2022-07-29T03:58:29;7.60;;;2.37;;
71947;SDS011;59820;55.076;38.766;2022-07-29T04:00:57;8.43;;;2.40;;
71947;SDS011;59820;55.076;38.766;2022-07-29T04:03:23;5.25;;;2.67;;
71947;SDS011;59820;55.076;38.766;2022-07-29T04:05:59;6.55;;;2.60;;
71947;SDS011;59820;55.076;38.766;2022-07-29T04:08:34;5.93;;;2.10;;
71947;SDS011;59820;55.076;38.766;2022-07-29T04:11:00;5.30;;;2.30;;
71947;SDS011;59820;55.076;38.766;2022-07-29T04:13:27;6.97;;;2.60;;
71947;SDS011;59820;55.076;38.766;2022-07-29T04:15:53;4.97;;;2.42;;
71947;SDS011;59820;55.076;38.766;2022-07-29T04:18:19;5.43;;;2.67;;
71947;SDS011;59820;55.076;38.766;2022-07-29T04:20:44;5.70;;;3.00;;
71947;SDS011;59820;55.076;38.766;2022-07-29T04:23:11;7.25;;;2.58;;
71947;SDS011;59820;55.076;38.766;2022-07-29T04:25:38;8.57;;;2.92;;
71947;SDS011;59820;55.076;38.766;2022-07-29T04:28:05;6.40;;;2.70;;
71947;SDS011;59820;55.076;38.766;2022-07-29T04:30:32;6.13;;;2.45;;
71947;SDS011;59820;55.076;38.766;2022-07-29T04:32:59;5.35;;;2.40;;
71947;SDS011;59820;55.076;38.766;2022-07-29T04:35:27;9.40;;;2.58;;
71947;SDS011;59820;55.076;38.766;2022-07-29T04:37:54;6.07;;;2.30;;
71947;SDS011;59820;55.076;38.766;2022-07-29T04:40:20;7.60;;;2.37;;
71947;SDS011;59820;55.076;38.766;2022-07-29T04:42:46;5.22;;;2.40;;
71947;SDS011;59820;55.076;38.766;2022-07-29T04:45:12;7.70;;;2.50;;
71947;SDS011;59820;55.076;38.766;2022-07-29T04:47:39;7.57;;;2.20;;
71947;SDS011;59820;55.076;38.766;2022-07-29T04:50:04;5.38;;;2.60;;
71947;SDS011;59820;55.076;38.766;2022-07-29T04:52:32;6.72;;;2.10;;
71947;SDS011;59820;55.076;38.766;2022-07-29T04:54:59;7.95;;;2.20;;
71947;SDS011;59820;55.076;38.766;2022-07-29T04:57:25;4.57;;;1.87;;
71947;SDS011;59820;55.076;38.766;2022-07-29T04:59:50;8.52;;;2.80;;
71947;SDS011;59820;55.076;38.766;2022-07-29T05:02:17;5.45;;;2.03;;
71947;SDS011;59820;55.076;38.766;2022-07-29T05:04:43;5.47;;;1.90;;
71947;SDS011;59820;55.076;38.766;2022-07-29T05:07:09;5.73;;;2.23;;
71947;SDS011;59820;55.076;38.766;2022-07-29T05:09:35;6.70;;;2.50;;
71947;SDS011;59820;55.076;38.766;2022-07-29T05:12:01;5.97;;;2.50;;
71947;SDS011;59820;55.076;38.766;2022-07-29T05:14:28;5.63;;;2.60;;
71947;SDS011;59820;55.076;38.766;2022-07-29T05:16:53;5.47;;;2.17;;
71947;SDS011;59820;55.076;38.766;2022-07-29T05:19:22;6.22;;;2.45;;
71947;SDS011;59820;55.076;38.766;2022-07-29T05:21:48;8.05;;;2.40;;
71947;SDS011;59820;55.076;38.766;2022-07-29T05:24:15;7.10;;;2.58;;
71947;SDS011;59820;55.076;38.766;2022-07-29T05:26:42;5.83;;;2.33;;
71947;SDS011;59820;55.076;38.766;2022-07-29T05:29:08;6.13;;;2.00;;
71947;SDS011;59820;55.076;38.766;2022-07-29T05:31:34;6.72;;;2.33;;
71947;SDS011;59820;55.076;38.766;2022-07-29T05:34:00;6.75;;;2.90;;
71947;SDS011;59820;55.076;38.766;2022-07-29T05:36:26;12.63;;;4.63;;
71947;SDS011;59820;55.076;38.766;2022-07-29T05:38:52;4.60;;;2.10;;
71947;SDS011;59820;55.076;38.766;2022-07-29T05:41:19;6.40;;;2.42;;
71947;SDS011;59820;55.076;38.766;2022-07-29T05:43:45;6.57;;;2.50;;
71947;SDS011;59820;55.076;38.766;2022-07-29T05:46:10;5.70;;;2.30;;
71947;SDS011;59820;55.076;38.766;2022-07-29T05:48:36;5.35;;;2.45;;
71947;SDS011;59820;55.076;38.766;2022-07-29T05:51:02;8.47;;;2.50;;
71947;SDS011;59820;55.076;38.766;2022-07-29T05:53:30;6.00;;;2.47;;
71947;SDS011;59820;55.076;38.766;2022-07-29T05:55:56;8.73;;;2.78;;
71947;SDS011;59820;55.076;38.766;2022-07-29T05:58:22;5.93;;;2.50;;
71947;SDS011;59820;55.076;38.766;2022-07-29T06:00:48;13.57;;;2.60;;
71947;SDS011;59820;55.076;38.766;2022-07-29T06:03:14;5.05;;;2.30;;
71947;SDS011;59820;55.076;38.766;2022-07-29T06:05:40;7.07;;;2.40;;
71947;SDS011;59820;55.076;38.766;2022-07-29T06:08:07;7.77;;;2.27;;
71947;SDS011;59820;55.076;38.766;2022-07-29T06:10:34;5.82;;;2.30;;
71947;SDS011;59820;55.076;38.766;2022-07-29T06:13:00;6.38;;;2.05;;
71947;SDS011;59820;55.076;38.766;2022-07-29T06:15:26;7.90;;;2.35;;
71947;SDS011;59820;55.076;38.766;2022-07-29T06:17:52;5.73;;;2.00;;
71947;SDS011;59820;55.076;38.766;2022-07-29T06:20:18;6.28;;;1.80;;
71947;SDS011;59820;55.076;38.766;2022-07-29T06:22:45;5.72;;;2.08;;
71947;SDS011;59820;55.076;38.766;2022-07-29T06:28:14;5.70;;;1.93;;
71947;SDS011;59820;55.076;38.766;2022-07-29T06:30:40;4.53;;;1.90;;
71947;SDS011;59820;55.076;38.766;2022-07-29T06:33:08;6.78;;;2.22;;
71947;SDS011;59820;55.076;38.766;2022-07-29T06:35:34;4.85;;;2.00;;
71947;SDS011;59820;55.076;38.766;2022-07-29T06:38:04;4.97;;;2.10;;
71947;SDS011;59820;55.076;38.766;2022-07-29T06:40:30;6.75;;;2.00;;
71947;SDS011;59820;55.076;38.766;2022-07-29T06:43:15;6.18;;;2.00;;
71947;SDS011;59820;55.076;38.766;2022-07-29T06:45:41;5.20;;;2.10;;
71947;SDS011;59820;55.076;38.766;2022-07-29T06:48:08;5.20;;;1.90;;
71947;SDS011;59820;55.076;38.766;2022-07-29T06:50:34;4.77;;;1.70;;
71947;SDS011;59820;55.076;38.766;2022-07-29T06:53:00;4.25;;;2.05;;
71947;SDS011;59820;55.076;38.766;2022-07-29T06:55:26;5.80;;;2.00;;
71947;SDS011;59820;55.076;38.766;2022-07-29T06:57:53;5.30;;;1.90;;
71947;SDS011;59820;55.076;38.766;2022-07-29T07:00:18;5.25;;;2.30;;
71947;SDS011;59820;55.076;38.766;2022-07-29T07:02:45;7.40;;;2.30;;
71947;SDS011;59820;55.076;38.766;2022-07-29T07:05:11;4.97;;;2.20;;
71947;SDS011;59820;55.076;38.766;2022-07-29T07:07:37;4.13;;;2.25;;
71947;SDS011;59820;55.076;38.766;2022-07-29T07:10:03;5.82;;;2.10;;
71947;SDS011;59820;55.076;38.766;2022-07-29T07:12:29;6.03;;;2.13;;
71947;SDS011;59820;55.076;38.766;2022-07-29T07:14:55;5.25;;;2.15;;
71947;SDS011;59820;55.076;38.766;2022-07-29T07:17:21;6.40;;;2.28;;
71947;SDS011;59820;55.076;38.766;2022-07-29T07:19:47;4.47;;;2.20;;
71947;SDS011;59820;55.076;38.766;2022-07-29T07:22:13;5.30;;;2.00;;
71947;SDS011;59820;55.076;38.766;2022-07-29T07:24:39;7.65;;;2.20;;
71947;SDS011;59820;55.076;38.766;2022-07-29T07:27:05;6.60;;;2.30;;
71947;SDS011;59820;55.076;38.766;2022-07-29T07:29:31;6.55;;;2.10;;
71947;SDS011;59820;55.076;38.766;2022-07-29T07:31:58;4.43;;;1.98;;
71947;SDS011;59820;55.076;38.766;2022-07-29T07:34:23;3.50;;;1.67;;
71947;SDS011;59820;55.076;38.766;2022-07-29T07:36:49;6.30;;;2.20;;
71947;SDS011;59820;55.076;38.766;2022-07-29T07:39:15;5.03;;;2.20;;
71947;SDS011;59820;55.076;38.766;2022-07-29T07:41:44;4.67;;;2.10;;
71947;SDS011;59820;55.076;38.766;2022-07-29T07:44:10;6.13;;;2.22;;
71947;SDS011;59820;55.076;38.766;2022-07-29T07:46:36;5.82;;;2.10;;
71947;SDS011;59820;55.076;38.766;2022-07-29T07:49:02;4.53;;;2.00;;
71947;SDS011;59820;55.076;38.766;2022-07-29T07:51:28;5.37;;;2.30;;
71947;SDS011;59820;55.076;38.766;2022-07-29T07:53:53;5.30;;;2.17;;
71947;SDS011;59820;55.076;38.766;2022-07-29T07:56:20;4.07;;;1.80;;
71947;SDS011;59820;55.076;38.766;2022-07-29T07:58:46;5.65;;;1.92;;
71947;SDS011;59820;55.076;38.766;2022-07-29T08:01:12;7.30;;;2.20;;
71947;SDS011;59820;55.076;38.766;2022-07-29T08:03:38;5.27;;;1.80;;
71947;SDS011;59820;55.076;38.766;2022-07-29T08:06:04;7.45;;;2.10;;
71947;SDS011;59820;55.076;38.766;2022-07-29T08:08:30;7.65;;;2.47;;
71947;SDS011;59820;55.076;38.766;2022-07-29T08:10:56;6.63;;;2.40;;
71947;SDS011;59820;55.076;38.766;2022-07-29T08:13:24;7.78;;;2.05;;
71947;SDS011;59820;55.076;38.766;2022-07-29T08:15:53;6.28;;;2.38;;
71947;SDS011;59820;55.076;38.766;2022-07-29T08:18:23;5.78;;;2.28;;
71947;SDS011;59820;55.076;38.766;2022-07-29T08:20:50;6.07;;;2.03;;
71947;SDS011;59820;55.076;38.766;2022-07-29T08:23:16;7.50;;;2.33;;
71947;SDS011;59820;55.076;38.766;2022-07-29T08:25:44;7.00;;;1.90;;
71947;SDS011;59820;55.076;38.766;2022-07-29T08:28:10;5.35;;;1.95;;
71947;SDS011;59820;55.076;38.766;2022-07-29T08:30:36;4.25;;;1.98;;
71947;SDS011;59820;55.076;38.766;2022-07-29T08:33:02;4.37;;;2.10;;
71947;SDS011;59820;55.076;38.766;2022-07-29T08:35:28;5.63;;;2.10;;
71947;SDS011;59820;55.076;38.766;2022-07-29T08:37:54;5.30;;;2.10;;
71947;SDS011;59820;55.076;38.766;2022-07-29T08:40:22;6.82;;;2.03;;
71947;SDS011;59820;55.076;38.766;2022-07-29T08:42:50;5.03;;;2.10;;
71947;SDS011;59820;55.076;38.766;2022-07-29T08:45:16;5.18;;;2.15;;
71947;SDS011;59820;55.076;38.766;2022-07-29T08:47:44;5.68;;;2.00;;
71947;SDS011;59820;55.076;38.766;2022-07-29T08:50:12;5.27;;;2.10;;
71947;SDS011;59820;55.076;38.766;2022-07-29T08:52:40;6.80;;;2.10;;
71947;SDS011;59820;55.076;38.766;2022-07-29T08:55:07;5.45;;;2.03;;
71947;SDS011;59820;55.076;38.766;2022-07-29T08:57:36;6.68;;;2.38;;
71947;SDS011;59820;55.076;38.766;2022-07-29T09:00:04;4.70;;;1.98;;
71947;SDS011;59820;55.076;38.766;2022-07-29T09:02:35;6.73;;;2.30;;
71947;SDS011;59820;55.076;38.766;2022-07-29T09:05:04;6.85;;;1.90;;
71947;SDS011;59820;55.076;38.766;2022-07-29T09:07:31;5.13;;;1.90;;
71947;SDS011;59820;55.076;38.766;2022-07-29T09:09:58;4.65;;;1.92;;
71947;SDS011;59820;55.076;38.766;2022-07-29T09:12:25;5.00;;;1.98;;
71947;SDS011;59820;55.076;38.766;2022-07-29T09:14:51;5.97;;;2.10;;
71947;SDS011;59820;55.076;38.766;2022-07-29T09:17:17;5.85;;;2.50;;
71947;SDS011;59820;55.076;38.766;2022-07-29T09:19:45;7.60;;;2.30;;
71947;SDS011;59820;55.076;38.766;2022-07-29T09:22:11;4.90;;;1.83;;
71947;SDS011;59820;55.076;38.766;2022-07-29T09:24:42;5.15;;;1.70;;
71947;SDS011;59820;55.076;38.766;2022-07-29T09:27:20;6.33;;;2.10;;
71947;SDS011;59820;55.076;38.766;2022-07-29T09:32:26;8.40;;;2.00;;
71947;SDS011;59820;55.076;38.766;2022-07-29T09:37:46;5.50;;;2.28;;
71947;SDS011;59820;55.076;38.766;2022-07-29T09:40:23;5.97;;;2.07;;
71947;SDS011;59820;55.076;38.766;2022-07-29T09:42:51;5.28;;;2.25;;
71947;SDS011;59820;55.076;38.766;2022-07-29T09:45:29;5.18;;;2.40;;
71947;SDS011;59820;55.076;38.766;2022-07-29T09:47:59;6.35;;;1.95;;
71947;SDS011;59820;55.076;38.766;2022-07-29T09:50:41;4.43;;;2.30;;
71947;SDS011;59820;55.076;38.766;2022-07-29T09:53:09;5.67;;;2.27;;
71947;SDS011;59820;55.076;38.766;2022-07-29T09:55:51;5.25;;;2.63;;
71947;SDS011;59820;55.076;38.766;2022-07-29T09:58:18;5.05;;;2.10;;
71947;SDS011;59820;55.076;38.766;2022-07-29T10:00:46;3.78;;;1.73;;
71947;SDS011;59820;55.076;38.766;2022-07-29T10:03:14;5.25;;;1.90;;
71947;SDS011;59820;55.076;38.766;2022-07-29T10:05:41;3.43;;;1.80;;
71947;SDS011;59820;55.076;38.766;2022-07-29T10:08:08;5.88;;;2.30;;
71947;SDS011;59820;55.076;38.766;2022-07-29T10:10:37;6.00;;;2.20;;
71947;SDS011;59820;55.076;38.766;2022-07-29T10:13:05;3.95;;;2.13;;
71947;SDS011;59820;55.076;38.766;2022-07-29T10:15:36;6.07;;;2.38;;
71947;SDS011;59820;55.076;38.766;2022-07-29T10:18:04;4.63;;;2.23;;
71947;SDS011;59820;55.076;38.766;2022-07-29T10:20:31;5.43;;;1.70;;
71947;SDS011;59820;55.076;38.766;2022-07-29T10:22:57;4.13;;;1.85;;
71947;SDS011;59820;55.076;38.766;2022-07-29T10:25:23;4.85;;;1.80;;
71947;SDS011;59820;55.076;38.766;2022-07-29T10:27:50;4.57;;;1.85;;
71947;SDS011;59820;55.076;38.766;2022-07-29T10:30:17;7.00;;;2.20;;
71947;SDS011;59820;55.076;38.766;2022-07-29T10:32:49;5.25;;;2.38;;
71947;SDS011;59820;55.076;38.766;2022-07-29T10:36:20;4.68;;;2.35;;
71947;SDS011;59820;55.076;38.766;2022-07-29T10:38:53;4.03;;;1.87;;
71947;SDS011;59820;55.076;38.766;2022-07-29T10:44:18;6.18;;;2.35;;
71947;SDS011;59820;55.076;38.766;2022-07-29T10:46:48;5.75;;;3.28;;
71947;SDS011;59820;55.076;38.766;2022-07-29T10:49:19;5.18;;;2.67;;
71947;SDS011;59820;55.076;38.766;2022-07-29T10:52:02;5.10;;;2.00;;
71947;SDS011;59820;55.076;38.766;2022-07-29T11:05:02;4.40;;;2.20;;
71947;SDS011;59820;55.076;38.766;2022-07-29T11:07:31;5.07;;;2.08;;
71947;SDS011;59820;55.076;38.766;2022-07-29T11:15:10;4.38;;;1.80;;
71947;SDS011;59820;55.076;38.766;2022-07-29T11:20:41;4.90;;;2.40;;
71947;SDS011;59820;55.076;38.766;2022-07-29T11:23:24;7.07;;;2.33;;
71947;SDS011;59820;55.076;38.766;2022-07-29T11:31:44;4.70;;;2.50;;
71947;SDS011;59820;55.076;38.766;2022-07-29T11:39:37;4.93;;;1.90;;
71947;SDS011;59820;55.076;38.766;2022-07-29T11:47:32;5.28;;;2.20;;
71947;SDS011;59820;55.076;38.766;2022-07-29T11:50:00;4.55;;;2.00;;
71947;SDS011;59820;55.076;38.766;2022-07-29T11:52:42;4.70;;;2.08;;
71947;SDS011;59820;55.076;38.766;2022-07-29T11:55:14;4.03;;;2.15;;
71947;SDS011;59820;55.076;38.766;2022-07-29T11:57:46;4.43;;;2.70;;
71947;SDS011;59820;55.076;38.766;2022-07-29T12:00:19;4.38;;;2.83;;
71947;SDS011;59820;55.076;38.766;2022-07-29T12:02:52;5.45;;;3.03;;
71947;SDS011;59820;55.076;38.766;2022-07-29T12:05:19;4.40;;;2.92;;
71947;SDS011;59820;55.076;38.766;2022-07-29T12:07:47;5.30;;;2.50;;
71947;SDS011;59820;55.076;38.766;2022-07-29T12:10:14;5.15;;;2.85;;
71947;SDS011;59820;55.076;38.766;2022-07-29T12:12:40;4.65;;;3.10;;
71947;SDS011;59820;55.076;38.766;2022-07-29T12:15:10;5.53;;;2.20;;
71947;SDS011;59820;55.076;38.766;2022-07-29T12:17:43;5.35;;;3.40;;
71947;SDS011;59820;55.076;38.766;2022-07-29T12:20:09;5.15;;;3.15;;
71947;SDS011;59820;55.076;38.766;2022-07-29T12:22:41;4.03;;;1.77;;
71947;SDS011;59820;55.076;38.766;2022-07-29T12:25:13;6.22;;;1.90;;
71947;SDS011;59820;55.076;38.766;2022-07-29T12:27:41;4.65;;;1.80;;
71947;SDS011;59820;55.076;38.766;2022-07-29T12:30:09;4.85;;;2.17;;
71947;SDS011;59820;55.076;38.766;2022-07-29T12:32:45;5.60;;;2.90;;
71947;SDS011;59820;55.076;38.766;2022-07-29T12:35:13;4.90;;;2.10;;
71947;SDS011;59820;55.076;38.766;2022-07-29T12:37:41;4.22;;;2.95;;
71947;SDS011;59820;55.076;38.766;2022-07-29T12:40:09;7.05;;;3.45;;
71947;SDS011;59820;55.076;38.766;2022-07-29T12:42:38;4.43;;;3.00;;
71947;SDS011;59820;55.076;38.766;2022-07-29T12:45:04;6.43;;;3.20;;
71947;SDS011;59820;55.076;38.766;2022-07-29T12:47:32;5.70;;;3.17;;
71947;SDS011;59820;55.076;38.766;2022-07-29T12:52:39;4.35;;;2.45;;
71947;SDS011;59820;55.076;38.766;2022-07-29T12:55:05;4.90;;;3.08;;
71947;SDS011;59820;55.076;38.766;2022-07-29T12:57:32;6.65;;;3.75;;
71947;SDS011;59820;55.076;38.766;2022-07-29T13:00:10;5.63;;;3.60;;
71947;SDS011;59820;55.076;38.766;2022-07-29T13:02:39;4.47;;;3.10;;
71947;SDS011;59820;55.076;38.766;2022-07-29T13:05:07;4.28;;;2.00;;
71947;SDS011;59820;55.076;38.766;2022-07-29T13:07:35;3.90;;;2.15;;
71947;SDS011;59820;55.076;38.766;2022-07-29T13:10:36;4.05;;;2.40;;
71947;SDS011;59820;55.076;38.766;2022-07-29T13:13:05;4.90;;;2.17;;
71947;SDS011;59820;55.076;38.766;2022-07-29T13:15:42;4.82;;;2.42;;
71947;SDS011;59820;55.076;38.766;2022-07-29T13:21:10;5.45;;;2.70;;
71947;SDS011;59820;55.076;38.766;2022-07-29T13:23:41;4.82;;;2.25;;
71947;SDS011;59820;55.076;38.766;2022-07-29T13:26:08;4.57;;;2.08;;
71947;SDS011;59820;55.076;38.766;2022-07-29T13:28:36;5.05;;;2.30;;
71947;SDS011;59820;55.076;38.766;2022-07-29T13:31:03;4.10;;;1.70;;
71947;SDS011;59820;55.076;38.766;2022-07-29T13:33:29;4.88;;;2.33;;
71947;SDS011;59820;55.076;38.766;2022-07-29T13:35:56;4.72;;;2.30;;
71947;SDS011;59820;55.076;38.766;2022-07-29T13:38:22;6.03;;;2.67;;
71947;SDS011;59820;55.076;38.766;2022-07-29T13:40:48;5.78;;;3.42;;
71947;SDS011;59820;55.076;38.766;2022-07-29T13:43:14;6.57;;;3.17;;
71947;SDS011;59820;55.076;38.766;2022-07-29T13:45:40;5.80;;;4.00;;
71947;SDS011;59820;55.076;38.766;2022-07-29T13:48:09;4.35;;;3.17;;
71947;SDS011;59820;55.076;38.766;2022-07-29T13:50:36;5.38;;;2.63;;
71947;SDS011;59820;55.076;38.766;2022-07-29T13:53:04;4.15;;;2.40;;
71947;SDS011;59820;55.076;38.766;2022-07-29T13:55:30;4.97;;;2.30;;
71947;SDS011;59820;55.076;38.766;2022-07-29T13:57:56;6.63;;;2.78;;
71947;SDS011;59820;55.076;38.766;2022-07-29T14:00:22;4.88;;;2.40;;
71947;SDS011;59820;55.076;38.766;2022-07-29T14:02:49;3.70;;;1.95;;
71947;SDS011;59820;55.076;38.766;2022-07-29T14:05:15;4.70;;;3.42;;
71947;SDS011;59820;55.076;38.766;2022-07-29T14:07:41;4.15;;;3.30;;
71947;SDS011;59820;55.076;38.766;2022-07-29T14:10:07;5.73;;;3.70;;
71947;SDS011;59820;55.076;38.766;2022-07-29T14:12:33;3.72;;;2.00;;
71947;SDS011;59820;55.076;38.766;2022-07-29T14:15:00;6.85;;;2.17;;
71947;SDS011;59820;55.076;38.766;2022-07-29T14:17:26;4.93;;;3.60;;
71947;SDS011;59820;55.076;38.766;2022-07-29T14:19:52;6.70;;;3.73;;
71947;SDS011;59820;55.076;38.766;2022-07-29T14:22:18;5.00;;;3.78;;
71947;SDS011;59820;55.076;38.766;2022-07-29T14:24:44;4.75;;;3.53;;
71947;SDS011;59820;55.076;38.766;2022-07-29T14:27:10;5.13;;;3.50;;
71947;SDS011;59820;55.076;38.766;2022-07-29T14:29:37;5.28;;;3.65;;
71947;SDS011;59820;55.076;38.766;2022-07-29T14:32:03;6.45;;;3.33;;
71947;SDS011;59820;55.076;38.766;2022-07-29T14:34:31;5.20;;;3.25;;
71947;SDS011;59820;55.076;38.766;2022-07-29T14:36:57;5.10;;;2.80;;
71947;SDS011;59820;55.076;38.766;2022-07-29T14:39:23;4.60;;;3.30;;
71947;SDS011;59820;55.076;38.766;2022-07-29T14:41:49;7.80;;;3.88;;
71947;SDS011;59820;55.076;38.766;2022-07-29T14:44:17;4.75;;;3.40;;
71947;SDS011;59820;55.076;38.766;2022-07-29T14:46:43;5.05;;;3.53;;
71947;SDS011;59820;55.076;38.766;2022-07-29T14:49:09;4.93;;;3.10;;
71947;SDS011;59820;55.076;38.766;2022-07-29T14:51:35;5.18;;;3.20;;
71947;SDS011;59820;55.076;38.766;2022-07-29T14:54:02;5.43;;;3.47;;
71947;SDS011;59820;55.076;38.766;2022-07-29T14:56:28;4.53;;;3.10;;
71947;SDS011;59820;55.076;38.766;2022-07-29T14:58:55;5.03;;;3.60;;
71947;SDS011;59820;55.076;38.766;2022-07-29T15:01:23;5.85;;;3.58;;
71947;SDS011;59820;55.076;38.766;2022-07-29T15:03:49;3.92;;;2.67;;
71947;SDS011;59820;55.076;38.766;2022-07-29T15:06:16;5.53;;;3.38;;
71947;SDS011;59820;55.076;38.766;2022-07-29T15:08:43;4.95;;;3.50;;
71947;SDS011;59820;55.076;38.766;2022-07-29T15:11:09;4.43;;;3.20;;
71947;SDS011;59820;55.076;38.766;2022-07-29T15:13:35;5.65;;;3.25;;
71947;SDS011;59820;55.076;38.766;2022-07-29T15:16:00;5.38;;;3.00;;
71947;SDS011;59820;55.076;38.766;2022-07-29T15:18:26;6.97;;;3.20;;
71947;SDS011;59820;55.076;38.766;2022-07-29T15:20:53;6.85;;;3.47;;
71947;SDS011;59820;55.076;38.766;2022-07-29T15:23:19;5.38;;;3.50;;
71947;SDS011;59820;55.076;38.766;2022-07-29T15:25:45;5.10;;;3.20;;
71947;SDS011;59820;55.076;38.766;2022-07-29T15:28:11;9.02;;;4.60;;
71947;SDS011;59820;55.076;38.766;2022-07-29T15:30:37;5.18;;;3.42;;
71947;SDS011;59820;55.076;38.766;2022-07-29T15:33:06;9.32;;;4.75;;
71947;SDS011;59820;55.076;38.766;2022-07-29T15:35:35;8.33;;;4.87;;
71947;SDS011;59820;55.076;38.766;2022-07-29T15:38:03;6.50;;;4.40;;
71947;SDS011;59820;55.076;38.766;2022-07-29T15:40:29;6.45;;;4.43;;
71947;SDS011;59820;55.076;38.766;2022-07-29T15:42:55;6.88;;;3.90;;
71947;SDS011;59820;55.076;38.766;2022-07-29T15:45:22;6.85;;;3.58;;
71947;SDS011;59820;55.076;38.766;2022-07-29T15:47:49;5.27;;;3.00;;